sensor_id;sensor_type;location;lat;lon;timestamp;P1;durP1;ratioP1;P2;durP2;ratioP2
71456;SDS011;59263;48.160;11.752;2022-07-04T00:02:08;7.33;;;2.90;;
71456;SDS011;59263;48.160;11.752;2022-07-04T00:04:33;6.57;;;2.77;;
71456;SDS011;59263;48.160;11.752;2022-07-04T00:06:59;8.30;;;2.93;;
71456;SDS011;59263;48.160;11.752;2022-07-04T00:09:24;7.00;;;2.55;;
71456;SDS011;59263;48.160;11.752;2022-07-04T00:11:49;7.70;;;2.90;;
71456;SDS011;59263;48.160;11.752;2022-07-04T00:14:15;9.90;;;3.17;;
71456;SDS011;59263;48.160;11.752;2022-07-04T00:16:40;8.27;;;3.17;;
71456;SDS011;59263;48.160;11.752;2022-07-04T00:19:05;6.83;;;2.80;;
71456;SDS011;59263;48.160;11.752;2022-07-04T00:21:30;8.63;;;3.40;;
71456;SDS011;59263;48.160;11.752;2022-07-04T00:23:56;8.70;;;4.30;;
71456;SDS011;59263;48.160;11.752;2022-07-04T00:26:22;8.15;;;3.70;;
71456;SDS011;59263;48.160;11.752;2022-07-04T00:28:47;9.93;;;3.10;;
71456;SDS011;59263;48.160;11.752;2022-07-04T00:31:13;7.87;;;3.10;;
71456;SDS011;59263;48.160;11.752;2022-07-04T00:33:38;8.52;;;2.75;;
71456;SDS011;59263;48.160;11.752;2022-07-04T00:36:03;8.30;;;2.77;;
71456;SDS011;59263;48.160;11.752;2022-07-04T00:38:29;10.27;;;2.70;;
71456;SDS011;59263;48.160;11.752;2022-07-04T00:40:54;9.27;;;2.70;;
71456;SDS011;59263;48.160;11.752;2022-07-04T00:43:26;7.70;;;2.90;;
71456;SDS011;59263;48.160;11.752;2022-07-04T00:45:53;13.05;;;2.92;;
71456;SDS011;59263;48.160;11.752;2022-07-04T00:48:19;8.05;;;2.58;;
71456;SDS011;59263;48.160;11.752;2022-07-04T00:50:45;11.27;;;2.40;;
71456;SDS011;59263;48.160;11.752;2022-07-04T00:53:12;9.05;;;2.55;;
71456;SDS011;59263;48.160;11.752;2022-07-04T00:55:38;8.57;;;2.47;;
71456;SDS011;59263;48.160;11.752;2022-07-04T00:58:04;10.10;;;5.97;;
71456;SDS011;59263;48.160;11.752;2022-07-04T01:00:30;6.70;;;2.28;;
71456;SDS011;59263;48.160;11.752;2022-07-04T01:02:56;9.20;;;4.13;;
71456;SDS011;59263;48.160;11.752;2022-07-04T01:05:21;6.27;;;2.20;;
71456;SDS011;59263;48.160;11.752;2022-07-04T01:07:46;9.00;;;2.53;;
71456;SDS011;59263;48.160;11.752;2022-07-04T01:10:12;8.40;;;2.93;;
71456;SDS011;59263;48.160;11.752;2022-07-04T01:12:37;7.97;;;3.42;;
71456;SDS011;59263;48.160;11.752;2022-07-04T01:15:03;9.40;;;2.83;;
71456;SDS011;59263;48.160;11.752;2022-07-04T01:17:30;8.75;;;2.60;;
71456;SDS011;59263;48.160;11.752;2022-07-04T01:19:55;6.83;;;2.70;;
71456;SDS011;59263;48.160;11.752;2022-07-04T01:22:21;7.47;;;2.60;;
71456;SDS011;59263;48.160;11.752;2022-07-04T01:24:47;6.82;;;2.50;;
71456;SDS011;59263;48.160;11.752;2022-07-04T01:27:12;7.23;;;2.50;;
71456;SDS011;59263;48.160;11.752;2022-07-04T01:29:39;6.63;;;2.60;;
71456;SDS011;59263;48.160;11.752;2022-07-04T01:32:07;6.40;;;2.10;;
71456;SDS011;59263;48.160;11.752;2022-07-04T01:34:33;6.07;;;2.42;;
71456;SDS011;59263;48.160;11.752;2022-07-04T01:36:59;6.53;;;2.40;;
71456;SDS011;59263;48.160;11.752;2022-07-04T01:39:26;7.13;;;2.47;;
71456;SDS011;59263;48.160;11.752;2022-07-04T01:41:52;6.50;;;2.65;;
71456;SDS011;59263;48.160;11.752;2022-07-04T01:44:17;6.53;;;2.20;;
71456;SDS011;59263;48.160;11.752;2022-07-04T01:46:43;7.67;;;2.00;;
71456;SDS011;59263;48.160;11.752;2022-07-04T01:49:08;6.27;;;2.33;;
71456;SDS011;59263;48.160;11.752;2022-07-04T01:51:34;7.30;;;2.20;;
71456;SDS011;59263;48.160;11.752;2022-07-04T01:53:59;6.40;;;2.13;;
71456;SDS011;59263;48.160;11.752;2022-07-04T01:56:25;8.20;;;2.17;;
71456;SDS011;59263;48.160;11.752;2022-07-04T01:58:50;7.37;;;2.30;;
71456;SDS011;59263;48.160;11.752;2022-07-04T02:01:16;6.60;;;2.23;;
71456;SDS011;59263;48.160;11.752;2022-07-04T02:04:01;7.13;;;2.25;;
71456;SDS011;59263;48.160;11.752;2022-07-04T02:06:27;6.47;;;2.33;;
71456;SDS011;59263;48.160;11.752;2022-07-04T02:08:53;7.05;;;2.40;;
71456;SDS011;59263;48.160;11.752;2022-07-04T02:11:37;6.00;;;2.17;;
71456;SDS011;59263;48.160;11.752;2022-07-04T02:14:21;7.68;;;2.50;;
71456;SDS011;59263;48.160;11.752;2022-07-04T02:16:47;7.90;;;2.87;;
71456;SDS011;59263;48.160;11.752;2022-07-04T02:19:12;7.57;;;2.40;;
71456;SDS011;59263;48.160;11.752;2022-07-04T02:21:38;6.10;;;2.15;;
71456;SDS011;59263;48.160;11.752;2022-07-04T02:24:03;6.67;;;2.33;;
71456;SDS011;59263;48.160;11.752;2022-07-04T02:26:29;7.40;;;2.58;;
71456;SDS011;59263;48.160;11.752;2022-07-04T02:28:54;8.13;;;2.53;;
71456;SDS011;59263;48.160;11.752;2022-07-04T02:31:19;7.70;;;2.37;;
71456;SDS011;59263;48.160;11.752;2022-07-04T02:33:45;6.73;;;2.60;;
71456;SDS011;59263;48.160;11.752;2022-07-04T02:36:10;7.40;;;2.47;;
71456;SDS011;59263;48.160;11.752;2022-07-04T02:38:35;7.63;;;2.43;;
71456;SDS011;59263;48.160;11.752;2022-07-04T02:41:01;7.00;;;2.57;;
71456;SDS011;59263;48.160;11.752;2022-07-04T02:43:26;7.57;;;2.40;;
71456;SDS011;59263;48.160;11.752;2022-07-04T02:45:51;7.20;;;2.47;;
71456;SDS011;59263;48.160;11.752;2022-07-04T02:48:17;7.90;;;2.75;;
71456;SDS011;59263;48.160;11.752;2022-07-04T02:50:42;7.77;;;2.60;;
71456;SDS011;59263;48.160;11.752;2022-07-04T02:53:07;6.70;;;2.50;;
71456;SDS011;59263;48.160;11.752;2022-07-04T02:55:33;6.53;;;2.57;;
71456;SDS011;59263;48.160;11.752;2022-07-04T02:57:58;7.03;;;2.30;;
71456;SDS011;59263;48.160;11.752;2022-07-04T03:00:24;7.20;;;2.88;;
71456;SDS011;59263;48.160;11.752;2022-07-04T03:02:49;7.90;;;2.47;;
71456;SDS011;59263;48.160;11.752;2022-07-04T03:05:15;6.20;;;2.20;;
71456;SDS011;59263;48.160;11.752;2022-07-04T03:07:40;7.13;;;2.80;;
71456;SDS011;59263;48.160;11.752;2022-07-04T03:10:06;6.67;;;2.67;;
71456;SDS011;59263;48.160;11.752;2022-07-04T03:12:32;7.00;;;2.33;;
71456;SDS011;59263;48.160;11.752;2022-07-04T03:14:58;6.63;;;2.60;;
71456;SDS011;59263;48.160;11.752;2022-07-04T03:17:24;6.50;;;2.40;;
71456;SDS011;59263;48.160;11.752;2022-07-04T03:19:50;7.35;;;2.40;;
71456;SDS011;59263;48.160;11.752;2022-07-04T03:22:16;8.63;;;2.67;;
71456;SDS011;59263;48.160;11.752;2022-07-04T03:24:41;7.70;;;2.47;;
71456;SDS011;59263;48.160;11.752;2022-07-04T03:27:06;6.93;;;2.50;;
71456;SDS011;59263;48.160;11.752;2022-07-04T03:29:32;6.60;;;2.50;;
71456;SDS011;59263;48.160;11.752;2022-07-04T03:31:57;6.83;;;2.43;;
71456;SDS011;59263;48.160;11.752;2022-07-04T03:34:22;9.10;;;2.77;;
71456;SDS011;59263;48.160;11.752;2022-07-04T03:36:48;7.17;;;2.60;;
71456;SDS011;59263;48.160;11.752;2022-07-04T03:39:13;8.20;;;2.77;;
71456;SDS011;59263;48.160;11.752;2022-07-04T03:41:38;7.57;;;2.70;;
71456;SDS011;59263;48.160;11.752;2022-07-04T03:44:04;6.93;;;2.40;;
71456;SDS011;59263;48.160;11.752;2022-07-04T03:46:29;7.82;;;2.65;;
71456;SDS011;59263;48.160;11.752;2022-07-04T03:48:54;10.17;;;2.60;;
71456;SDS011;59263;48.160;11.752;2022-07-04T03:51:20;6.63;;;2.22;;
71456;SDS011;59263;48.160;11.752;2022-07-04T03:53:47;6.28;;;2.15;;
71456;SDS011;59263;48.160;11.752;2022-07-04T03:56:13;6.63;;;1.88;;
71456;SDS011;59263;48.160;11.752;2022-07-04T03:58:38;6.37;;;2.10;;
71456;SDS011;59263;48.160;11.752;2022-07-04T04:01:04;7.63;;;2.17;;
71456;SDS011;59263;48.160;11.752;2022-07-04T04:03:29;6.73;;;2.00;;
71456;SDS011;59263;48.160;11.752;2022-07-04T04:06:13;6.57;;;2.00;;
71456;SDS011;59263;48.160;11.752;2022-07-04T04:08:39;6.47;;;1.90;;
71456;SDS011;59263;48.160;11.752;2022-07-04T04:11:04;6.80;;;2.03;;
71456;SDS011;59263;48.160;11.752;2022-07-04T04:13:29;6.63;;;1.88;;
71456;SDS011;59263;48.160;11.752;2022-07-04T04:15:54;6.03;;;2.00;;
71456;SDS011;59263;48.160;11.752;2022-07-04T04:18:20;8.90;;;4.27;;
71456;SDS011;59263;48.160;11.752;2022-07-04T04:20:45;6.73;;;2.50;;
71456;SDS011;59263;48.160;11.752;2022-07-04T04:23:10;9.47;;;2.90;;
71456;SDS011;59263;48.160;11.752;2022-07-04T04:25:36;7.47;;;2.40;;
71456;SDS011;59263;48.160;11.752;2022-07-04T04:28:01;6.43;;;2.43;;
71456;SDS011;59263;48.160;11.752;2022-07-04T04:30:26;6.30;;;2.30;;
71456;SDS011;59263;48.160;11.752;2022-07-04T04:32:51;6.60;;;2.10;;
71456;SDS011;59263;48.160;11.752;2022-07-04T04:35:17;6.63;;;2.63;;
71456;SDS011;59263;48.160;11.752;2022-07-04T04:37:42;6.97;;;2.58;;
71456;SDS011;59263;48.160;11.752;2022-07-04T04:40:08;6.30;;;2.20;;
71456;SDS011;59263;48.160;11.752;2022-07-04T04:42:34;7.85;;;2.50;;
71456;SDS011;59263;48.160;11.752;2022-07-04T04:45:01;6.33;;;2.00;;
71456;SDS011;59263;48.160;11.752;2022-07-04T04:47:26;8.18;;;2.20;;
71456;SDS011;59263;48.160;11.752;2022-07-04T04:49:52;6.80;;;2.47;;
71456;SDS011;59263;48.160;11.752;2022-07-04T04:52:17;11.67;;;3.73;;
71456;SDS011;59263;48.160;11.752;2022-07-04T04:54:42;7.57;;;2.80;;
71456;SDS011;59263;48.160;11.752;2022-07-04T04:57:08;6.17;;;2.37;;
71456;SDS011;59263;48.160;11.752;2022-07-04T04:59:33;6.75;;;2.35;;
71456;SDS011;59263;48.160;11.752;2022-07-04T05:01:59;6.80;;;2.30;;
71456;SDS011;59263;48.160;11.752;2022-07-04T05:04:24;6.37;;;2.33;;
71456;SDS011;59263;48.160;11.752;2022-07-04T05:06:50;6.20;;;2.30;;
71456;SDS011;59263;48.160;11.752;2022-07-04T05:09:16;6.55;;;2.28;;
71456;SDS011;59263;48.160;11.752;2022-07-04T05:11:42;7.77;;;2.23;;
71456;SDS011;59263;48.160;11.752;2022-07-04T05:14:07;7.60;;;2.10;;
71456;SDS011;59263;48.160;11.752;2022-07-04T05:16:32;6.77;;;2.20;;
71456;SDS011;59263;48.160;11.752;2022-07-04T05:18:58;6.18;;;2.10;;
71456;SDS011;59263;48.160;11.752;2022-07-04T05:21:25;4.73;;;1.70;;
71456;SDS011;59263;48.160;11.752;2022-07-04T05:23:52;8.02;;;2.30;;
71456;SDS011;59263;48.160;11.752;2022-07-04T05:26:18;6.47;;;2.20;;
71456;SDS011;59263;48.160;11.752;2022-07-04T05:28:43;7.27;;;2.07;;
71456;SDS011;59263;48.160;11.752;2022-07-04T05:31:08;7.13;;;2.30;;
71456;SDS011;59263;48.160;11.752;2022-07-04T05:33:34;6.60;;;2.07;;
71456;SDS011;59263;48.160;11.752;2022-07-04T05:35:59;8.32;;;2.10;;
71456;SDS011;59263;48.160;11.752;2022-07-04T05:38:24;7.87;;;3.10;;
71456;SDS011;59263;48.160;11.752;2022-07-04T05:40:50;7.53;;;2.90;;
71456;SDS011;59263;48.160;11.752;2022-07-04T05:43:15;8.10;;;2.17;;
71456;SDS011;59263;48.160;11.752;2022-07-04T05:45:40;7.27;;;2.00;;
71456;SDS011;59263;48.160;11.752;2022-07-04T05:48:06;8.43;;;2.53;;
71456;SDS011;59263;48.160;11.752;2022-07-04T05:50:32;7.27;;;2.10;;
71456;SDS011;59263;48.160;11.752;2022-07-04T05:52:59;6.50;;;2.10;;
71456;SDS011;59263;48.160;11.752;2022-07-04T05:55:25;6.70;;;2.10;;
71456;SDS011;59263;48.160;11.752;2022-07-04T05:57:50;9.00;;;2.10;;
71456;SDS011;59263;48.160;11.752;2022-07-04T06:00:15;8.20;;;2.17;;
71456;SDS011;59263;48.160;11.752;2022-07-04T06:02:41;6.23;;;1.90;;
71456;SDS011;59263;48.160;11.752;2022-07-04T06:05:07;6.18;;;2.00;;
71456;SDS011;59263;48.160;11.752;2022-07-04T06:07:33;8.32;;;2.50;;
71456;SDS011;59263;48.160;11.752;2022-07-04T06:09:58;7.97;;;2.20;;
71456;SDS011;59263;48.160;11.752;2022-07-04T06:12:24;7.83;;;2.20;;
71456;SDS011;59263;48.160;11.752;2022-07-04T06:14:49;8.63;;;2.07;;
71456;SDS011;59263;48.160;11.752;2022-07-04T06:17:14;6.23;;;1.77;;
71456;SDS011;59263;48.160;11.752;2022-07-04T06:19:40;6.20;;;2.00;;
71456;SDS011;59263;48.160;11.752;2022-07-04T06:22:05;8.03;;;1.90;;
71456;SDS011;59263;48.160;11.752;2022-07-04T06:24:30;8.50;;;2.23;;
71456;SDS011;59263;48.160;11.752;2022-07-04T06:26:56;5.60;;;2.20;;
71456;SDS011;59263;48.160;11.752;2022-07-04T06:29:21;7.88;;;2.00;;
71456;SDS011;59263;48.160;11.752;2022-07-04T06:31:46;6.93;;;2.00;;
71456;SDS011;59263;48.160;11.752;2022-07-04T06:34:13;7.00;;;2.15;;
71456;SDS011;59263;48.160;11.752;2022-07-04T06:36:57;6.00;;;1.80;;
71456;SDS011;59263;48.160;11.752;2022-07-04T06:39:22;6.67;;;2.00;;
71456;SDS011;59263;48.160;11.752;2022-07-04T06:41:47;6.07;;;2.07;;
71456;SDS011;59263;48.160;11.752;2022-07-04T06:44:13;6.20;;;1.97;;
71456;SDS011;59263;48.160;11.752;2022-07-04T06:46:38;6.20;;;2.00;;
71456;SDS011;59263;48.160;11.752;2022-07-04T06:49:03;5.20;;;1.83;;
71456;SDS011;59263;48.160;11.752;2022-07-04T06:51:29;5.90;;;1.90;;
71456;SDS011;59263;48.160;11.752;2022-07-04T06:53:54;7.67;;;2.00;;
71456;SDS011;59263;48.160;11.752;2022-07-04T06:56:19;5.57;;;1.73;;
71456;SDS011;59263;48.160;11.752;2022-07-04T06:58:45;5.77;;;1.60;;
71456;SDS011;59263;48.160;11.752;2022-07-04T07:01:10;9.53;;;2.60;;
71456;SDS011;59263;48.160;11.752;2022-07-04T07:03:36;8.83;;;2.17;;
71456;SDS011;59263;48.160;11.752;2022-07-04T07:06:01;6.88;;;2.20;;
71456;SDS011;59263;48.160;11.752;2022-07-04T07:08:27;5.22;;;1.90;;
71456;SDS011;59263;48.160;11.752;2022-07-04T07:10:53;6.97;;;2.28;;
71456;SDS011;59263;48.160;11.752;2022-07-04T07:13:19;6.07;;;2.40;;
71456;SDS011;59263;48.160;11.752;2022-07-04T07:15:44;6.67;;;2.67;;
71456;SDS011;59263;48.160;11.752;2022-07-04T07:18:09;6.57;;;2.15;;
71456;SDS011;59263;48.160;11.752;2022-07-04T07:20:34;5.53;;;1.98;;
71456;SDS011;59263;48.160;11.752;2022-07-04T07:23:03;5.80;;;1.90;;
71456;SDS011;59263;48.160;11.752;2022-07-04T07:25:29;5.95;;;2.10;;
71456;SDS011;59263;48.160;11.752;2022-07-04T07:27:56;6.85;;;2.00;;
71456;SDS011;59263;48.160;11.752;2022-07-04T07:30:21;9.27;;;2.40;;
71456;SDS011;59263;48.160;11.752;2022-07-04T07:32:47;8.03;;;2.20;;
71456;SDS011;59263;48.160;11.752;2022-07-04T07:35:12;5.00;;;1.70;;
71456;SDS011;59263;48.160;11.752;2022-07-04T07:37:37;6.10;;;2.00;;
71456;SDS011;59263;48.160;11.752;2022-07-04T07:40:03;5.25;;;1.90;;
71456;SDS011;59263;48.160;11.752;2022-07-04T07:42:28;6.67;;;1.93;;
71456;SDS011;59263;48.160;11.752;2022-07-04T07:44:54;7.93;;;2.90;;
71456;SDS011;59263;48.160;11.752;2022-07-04T07:47:19;5.72;;;1.70;;
71456;SDS011;59263;48.160;11.752;2022-07-04T07:49:45;4.93;;;1.80;;
71456;SDS011;59263;48.160;11.752;2022-07-04T07:52:12;6.68;;;2.10;;
71456;SDS011;59263;48.160;11.752;2022-07-04T07:54:38;6.70;;;2.47;;
71456;SDS011;59263;48.160;11.752;2022-07-04T07:57:03;8.10;;;2.03;;
71456;SDS011;59263;48.160;11.752;2022-07-04T07:59:29;5.97;;;1.98;;
71456;SDS011;59263;48.160;11.752;2022-07-04T08:01:54;6.60;;;2.03;;
71456;SDS011;59263;48.160;11.752;2022-07-04T08:04:19;5.67;;;1.70;;
71456;SDS011;59263;48.160;11.752;2022-07-04T08:07:01;6.97;;;2.10;;
71456;SDS011;59263;48.160;11.752;2022-07-04T08:09:33;6.70;;;1.80;;
71456;SDS011;59263;48.160;11.752;2022-07-04T08:11:59;7.03;;;2.10;;
71456;SDS011;59263;48.160;11.752;2022-07-04T08:14:26;6.30;;;2.08;;
71456;SDS011;59263;48.160;11.752;2022-07-04T08:16:52;7.82;;;2.20;;
71456;SDS011;59263;48.160;11.752;2022-07-04T08:19:17;5.70;;;2.07;;
71456;SDS011;59263;48.160;11.752;2022-07-04T08:21:43;8.07;;;2.00;;
71456;SDS011;59263;48.160;11.752;2022-07-04T08:24:08;7.07;;;2.00;;
71456;SDS011;59263;48.160;11.752;2022-07-04T08:26:33;7.28;;;1.88;;
71456;SDS011;59263;48.160;11.752;2022-07-04T08:28:59;8.87;;;2.13;;
71456;SDS011;59263;48.160;11.752;2022-07-04T08:31:25;6.87;;;1.73;;
71456;SDS011;59263;48.160;11.752;2022-07-04T08:33:51;7.65;;;1.80;;
71456;SDS011;59263;48.160;11.752;2022-07-04T08:36:17;6.45;;;1.83;;
71456;SDS011;59263;48.160;11.752;2022-07-04T08:38:43;6.72;;;2.22;;
71456;SDS011;59263;48.160;11.752;2022-07-04T08:41:08;6.10;;;2.00;;
71456;SDS011;59263;48.160;11.752;2022-07-04T08:43:34;6.57;;;1.70;;
71456;SDS011;59263;48.160;11.752;2022-07-04T08:46:02;6.30;;;1.80;;
71456;SDS011;59263;48.160;11.752;2022-07-04T08:48:28;6.90;;;1.80;;
71456;SDS011;59263;48.160;11.752;2022-07-04T08:50:56;6.30;;;1.80;;
71456;SDS011;59263;48.160;11.752;2022-07-04T08:53:27;6.10;;;1.73;;
71456;SDS011;59263;48.160;11.752;2022-07-04T08:55:55;5.88;;;1.50;;
71456;SDS011;59263;48.160;11.752;2022-07-04T08:58:39;6.15;;;1.88;;
71456;SDS011;59263;48.160;11.752;2022-07-04T09:01:08;6.00;;;1.92;;
71456;SDS011;59263;48.160;11.752;2022-07-04T09:03:42;6.43;;;2.10;;
71456;SDS011;59263;48.160;11.752;2022-07-04T09:06:09;7.20;;;1.77;;
71456;SDS011;59263;48.160;11.752;2022-07-04T09:08:36;5.68;;;1.80;;
71456;SDS011;59263;48.160;11.752;2022-07-04T09:11:02;5.90;;;1.70;;
71456;SDS011;59263;48.160;11.752;2022-07-04T09:13:29;5.07;;;1.80;;
71456;SDS011;59263;48.160;11.752;2022-07-04T09:15:55;6.60;;;1.75;;
71456;SDS011;59263;48.160;11.752;2022-07-04T09:18:21;4.30;;;1.40;;
71456;SDS011;59263;48.160;11.752;2022-07-04T09:20:49;5.88;;;1.70;;
71456;SDS011;59263;48.160;11.752;2022-07-04T09:23:19;6.75;;;1.60;;
71456;SDS011;59263;48.160;11.752;2022-07-04T09:25:46;6.47;;;2.00;;
71456;SDS011;59263;48.160;11.752;2022-07-04T09:28:12;5.22;;;1.73;;
71456;SDS011;59263;48.160;11.752;2022-07-04T09:30:51;4.82;;;1.95;;
71456;SDS011;59263;48.160;11.752;2022-07-04T09:33:16;7.10;;;2.03;;
71456;SDS011;59263;48.160;11.752;2022-07-04T09:35:43;5.82;;;1.67;;
71456;SDS011;59263;48.160;11.752;2022-07-04T09:38:09;10.77;;;1.80;;
71456;SDS011;59263;48.160;11.752;2022-07-04T09:40:37;5.07;;;1.33;;
71456;SDS011;59263;48.160;11.752;2022-07-04T09:43:22;7.20;;;1.88;;
71456;SDS011;59263;48.160;11.752;2022-07-04T09:45:58;5.07;;;1.60;;
71456;SDS011;59263;48.160;11.752;2022-07-04T09:48:26;4.80;;;1.50;;
71456;SDS011;59263;48.160;11.752;2022-07-04T09:51:11;5.10;;;1.60;;
71456;SDS011;59263;48.160;11.752;2022-07-04T09:53:37;5.03;;;1.63;;
71456;SDS011;59263;48.160;11.752;2022-07-04T09:56:02;5.67;;;1.60;;
71456;SDS011;59263;48.160;11.752;2022-07-04T09:58:27;5.87;;;1.60;;
71456;SDS011;59263;48.160;11.752;2022-07-04T10:00:53;5.23;;;1.40;;
71456;SDS011;59263;48.160;11.752;2022-07-04T10:03:25;7.15;;;1.90;;
71456;SDS011;59263;48.160;11.752;2022-07-04T10:06:08;6.45;;;1.83;;
71456;SDS011;59263;48.160;11.752;2022-07-04T10:08:36;4.68;;;1.88;;
71456;SDS011;59263;48.160;11.752;2022-07-04T10:11:03;6.37;;;1.80;;
71456;SDS011;59263;48.160;11.752;2022-07-04T10:13:29;5.63;;;1.50;;
71456;SDS011;59263;48.160;11.752;2022-07-04T10:15:55;5.63;;;1.95;;
71456;SDS011;59263;48.160;11.752;2022-07-04T10:18:21;5.30;;;1.47;;
71456;SDS011;59263;48.160;11.752;2022-07-04T10:20:48;6.05;;;1.60;;
71456;SDS011;59263;48.160;11.752;2022-07-04T10:23:15;6.15;;;1.70;;
71456;SDS011;59263;48.160;11.752;2022-07-04T10:25:41;4.60;;;1.60;;
71456;SDS011;59263;48.160;11.752;2022-07-04T10:28:07;5.10;;;1.60;;
71456;SDS011;59263;48.160;11.752;2022-07-04T10:30:34;4.27;;;1.50;;
71456;SDS011;59263;48.160;11.752;2022-07-04T10:33:02;4.97;;;1.65;;
71456;SDS011;59263;48.160;11.752;2022-07-04T10:38:28;5.13;;;1.30;;
71456;SDS011;59263;48.160;11.752;2022-07-04T10:40:55;5.18;;;1.45;;
71456;SDS011;59263;48.160;11.752;2022-07-04T10:48:53;3.55;;;1.27;;
71456;SDS011;59263;48.160;11.752;2022-07-04T10:53:57;5.15;;;1.40;;
71456;SDS011;59263;48.160;11.752;2022-07-04T11:01:45;4.70;;;1.60;;
71456;SDS011;59263;48.160;11.752;2022-07-04T11:07:13;6.47;;;1.75;;
71456;SDS011;59263;48.160;11.752;2022-07-04T11:09:40;5.50;;;1.50;;
71456;SDS011;59263;48.160;11.752;2022-07-04T11:12:07;4.18;;;1.52;;
71456;SDS011;59263;48.160;11.752;2022-07-04T11:14:46;6.90;;;1.60;;
71456;SDS011;59263;48.160;11.752;2022-07-04T11:17:13;5.22;;;1.60;;
71456;SDS011;59263;48.160;11.752;2022-07-04T11:19:40;5.50;;;1.58;;
71456;SDS011;59263;48.160;11.752;2022-07-04T11:22:07;5.70;;;1.60;;
71456;SDS011;59263;48.160;11.752;2022-07-04T11:24:34;6.15;;;1.50;;
71456;SDS011;59263;48.160;11.752;2022-07-04T11:27:00;5.20;;;1.50;;
71456;SDS011;59263;48.160;11.752;2022-07-04T11:29:27;3.97;;;1.50;;
71456;SDS011;59263;48.160;11.752;2022-07-04T11:31:54;5.27;;;1.60;;
71456;SDS011;59263;48.160;11.752;2022-07-04T11:34:20;5.78;;;1.70;;
71456;SDS011;59263;48.160;11.752;2022-07-04T11:36:46;5.63;;;1.60;;
71456;SDS011;59263;48.160;11.752;2022-07-04T11:39:16;7.00;;;1.50;;
71456;SDS011;59263;48.160;11.752;2022-07-04T11:41:45;6.80;;;1.75;;
71456;SDS011;59263;48.160;11.752;2022-07-04T11:44:40;5.82;;;1.90;;
71456;SDS011;59263;48.160;11.752;2022-07-04T11:47:35;5.93;;;1.60;;
71456;SDS011;59263;48.160;11.752;2022-07-04T11:50:08;5.93;;;1.67;;
71456;SDS011;59263;48.160;11.752;2022-07-04T11:52:47;4.78;;;1.50;;
71456;SDS011;59263;48.160;11.752;2022-07-04T11:55:18;5.95;;;1.80;;
71456;SDS011;59263;48.160;11.752;2022-07-04T11:57:47;4.88;;;1.70;;
71456;SDS011;59263;48.160;11.752;2022-07-04T12:00:18;6.15;;;1.58;;
71456;SDS011;59263;48.160;11.752;2022-07-04T12:02:46;5.57;;;1.60;;
71456;SDS011;59263;48.160;11.752;2022-07-04T12:05:12;4.93;;;1.42;;
71456;SDS011;59263;48.160;11.752;2022-07-04T12:07:39;5.32;;;1.60;;
71456;SDS011;59263;48.160;11.752;2022-07-04T12:10:16;6.55;;;1.55;;
71456;SDS011;59263;48.160;11.752;2022-07-04T12:12:55;5.85;;;1.60;;
71456;SDS011;59263;48.160;11.752;2022-07-04T12:15:40;4.37;;;1.50;;
71456;SDS011;59263;48.160;11.752;2022-07-04T12:18:19;5.68;;;1.60;;
71456;SDS011;59263;48.160;11.752;2022-07-04T12:20:46;4.80;;;1.60;;
71456;SDS011;59263;48.160;11.752;2022-07-04T12:23:13;4.78;;;1.40;;
71456;SDS011;59263;48.160;11.752;2022-07-04T12:25:38;5.70;;;1.57;;
71456;SDS011;59263;48.160;11.752;2022-07-04T12:28:05;4.75;;;1.52;;
71456;SDS011;59263;48.160;11.752;2022-07-04T12:30:33;5.33;;;1.30;;
71456;SDS011;59263;48.160;11.752;2022-07-04T12:33:01;5.90;;;1.48;;
71456;SDS011;59263;48.160;11.752;2022-07-04T12:38:15;4.30;;;1.30;;
71456;SDS011;59263;48.160;11.752;2022-07-04T12:46:06;6.93;;;1.77;;
71456;SDS011;59263;48.160;11.752;2022-07-04T12:48:33;5.55;;;1.50;;
71456;SDS011;59263;48.160;11.752;2022-07-04T12:51:14;4.93;;;1.40;;
71456;SDS011;59263;48.160;11.752;2022-07-04T12:53:44;4.53;;;1.50;;
71456;SDS011;59263;48.160;11.752;2022-07-04T12:56:33;6.43;;;1.73;;
71456;SDS011;59263;48.160;11.752;2022-07-04T12:58:58;7.72;;;1.38;;
71456;SDS011;59263;48.160;11.752;2022-07-04T13:01:25;7.18;;;1.50;;
71456;SDS011;59263;48.160;11.752;2022-07-04T13:03:50;6.17;;;1.50;;
71456;SDS011;59263;48.160;11.752;2022-07-04T13:06:16;4.88;;;1.50;;
71456;SDS011;59263;48.160;11.752;2022-07-04T13:08:41;6.03;;;1.80;;
71456;SDS011;59263;48.160;11.752;2022-07-04T13:11:07;5.30;;;1.57;;
71456;SDS011;59263;48.160;11.752;2022-07-04T13:13:51;7.15;;;1.83;;
71456;SDS011;59263;48.160;11.752;2022-07-04T13:16:16;5.23;;;1.80;;
71456;SDS011;59263;48.160;11.752;2022-07-04T13:18:41;5.53;;;1.60;;
71456;SDS011;59263;48.160;11.752;2022-07-04T13:21:06;5.57;;;1.83;;
71456;SDS011;59263;48.160;11.752;2022-07-04T13:23:32;6.43;;;1.70;;
71456;SDS011;59263;48.160;11.752;2022-07-04T13:25:57;4.63;;;1.60;;
71456;SDS011;59263;48.160;11.752;2022-07-04T13:28:23;5.22;;;1.60;;
71456;SDS011;59263;48.160;11.752;2022-07-04T13:30:48;6.13;;;1.63;;
71456;SDS011;59263;48.160;11.752;2022-07-04T13:33:13;6.93;;;2.33;;
71456;SDS011;59263;48.160;11.752;2022-07-04T13:35:40;5.93;;;1.70;;
71456;SDS011;59263;48.160;11.752;2022-07-04T13:38:05;5.87;;;1.70;;
71456;SDS011;59263;48.160;11.752;2022-07-04T13:40:30;7.00;;;1.40;;
71456;SDS011;59263;48.160;11.752;2022-07-04T13:42:56;5.00;;;1.67;;
71456;SDS011;59263;48.160;11.752;2022-07-04T13:45:24;5.63;;;1.50;;
71456;SDS011;59263;48.160;11.752;2022-07-04T13:47:53;4.82;;;1.40;;
71456;SDS011;59263;48.160;11.752;2022-07-04T13:50:19;6.77;;;1.80;;
71456;SDS011;59263;48.160;11.752;2022-07-04T13:52:45;5.78;;;1.52;;
71456;SDS011;59263;48.160;11.752;2022-07-04T13:55:10;6.47;;;1.60;;
71456;SDS011;59263;48.160;11.752;2022-07-04T13:57:36;5.60;;;1.50;;
71456;SDS011;59263;48.160;11.752;2022-07-04T14:00:03;4.97;;;1.42;;
71456;SDS011;59263;48.160;11.752;2022-07-04T14:02:29;5.72;;;1.80;;
71456;SDS011;59263;48.160;11.752;2022-07-04T14:04:54;7.37;;;1.63;;
71456;SDS011;59263;48.160;11.752;2022-07-04T14:07:20;6.93;;;1.63;;
71456;SDS011;59263;48.160;11.752;2022-07-04T14:09:45;8.50;;;1.80;;
71456;SDS011;59263;48.160;11.752;2022-07-04T14:12:11;7.57;;;2.00;;
71456;SDS011;59263;48.160;11.752;2022-07-04T14:14:37;5.63;;;1.60;;
71456;SDS011;59263;48.160;11.752;2022-07-04T14:17:02;5.95;;;1.52;;
71456;SDS011;59263;48.160;11.752;2022-07-04T14:19:27;5.23;;;1.40;;
71456;SDS011;59263;48.160;11.752;2022-07-04T14:21:53;5.80;;;1.53;;
71456;SDS011;59263;48.160;11.752;2022-07-04T14:24:18;7.20;;;1.87;;
71456;SDS011;59263;48.160;11.752;2022-07-04T14:26:44;8.57;;;1.73;;
71456;SDS011;59263;48.160;11.752;2022-07-04T14:29:09;5.07;;;1.40;;
71456;SDS011;59263;48.160;11.752;2022-07-04T14:31:34;5.57;;;1.80;;
71456;SDS011;59263;48.160;11.752;2022-07-04T14:34:00;4.60;;;1.63;;
71456;SDS011;59263;48.160;11.752;2022-07-04T14:36:26;5.55;;;1.63;;
71456;SDS011;59263;48.160;11.752;2022-07-04T14:38:51;5.33;;;1.53;;
71456;SDS011;59263;48.160;11.752;2022-07-04T14:41:16;5.87;;;1.70;;
71456;SDS011;59263;48.160;11.752;2022-07-04T14:43:42;6.17;;;1.90;;
71456;SDS011;59263;48.160;11.752;2022-07-04T14:46:08;6.07;;;1.60;;
71456;SDS011;59263;48.160;11.752;2022-07-04T14:48:35;6.32;;;1.73;;
71456;SDS011;59263;48.160;11.752;2022-07-04T14:51:01;5.45;;;1.80;;
71456;SDS011;59263;48.160;11.752;2022-07-04T14:53:26;4.77;;;1.60;;
71456;SDS011;59263;48.160;11.752;2022-07-04T14:55:52;5.85;;;1.70;;
71456;SDS011;59263;48.160;11.752;2022-07-04T14:58:17;6.97;;;1.53;;
71456;SDS011;59263;48.160;11.752;2022-07-04T15:00:43;5.10;;;1.77;;